Terminal Aerodrome Forecast
Issued by NWS

Home | Current Version | Previous Version | Text Only | Print | Product List | Glossary On
Versions: 1 2 3 4 5 6 7 8 9 10 11 12 13 14 15 16 17 18 19 20 21 22 23 24 25 26 27 28 29 30 31 32 33 34 35 36 37 38 39 40 41 42
000
FTAK31 PAFC 202338
TAFAIL
TAF
PAIL 202338Z 2100/2124 09012KT P6SM OVC035
      TEMPO 2100/2104 09015G23KT -SHRA OVC030
     FM211200 10015G25KT P6SM VCSH OVC040
     FM212100 10020G30KT P6SM OVC050=

USA.gov is the U.S. government's official web portal to all federal, state and local government web resources and services.